createdAt,value
2018-08-19T00:01:53.767Z,14.90
2018-08-19T00:04:22.336Z,14.90
2018-08-19T00:06:50.976Z,14.80
2018-08-19T00:09:19.472Z,14.80
2018-08-19T00:11:48.000Z,14.70
2018-08-19T00:14:27.947Z,14.70
2018-08-19T00:16:58.135Z,14.60
2018-08-19T00:19:27.036Z,14.60
2018-08-19T00:21:55.836Z,14.60
2018-08-19T00:24:24.708Z,14.60
2018-08-19T00:26:53.244Z,14.50
2018-08-19T00:29:27.013Z,14.50
2018-08-19T00:31:56.320Z,14.50
2018-08-19T00:34:30.108Z,14.50
2018-08-19T00:36:58.725Z,14.50
2018-08-19T00:39:27.227Z,14.40
2018-08-19T00:41:56.404Z,14.40
2018-08-19T00:44:24.996Z,14.40
2018-08-19T00:46:55.245Z,14.30
2018-08-19T00:49:23.757Z,14.30
2018-08-19T00:52:00.372Z,14.30
2018-08-19T00:54:30.476Z,14.20
2018-08-19T00:56:59.905Z,14.10
2018-08-19T00:59:29.582Z,14.20
2018-08-19T01:01:58.243Z,14.10
2018-08-19T01:04:27.468Z,14.10
2018-08-19T01:06:57.033Z,14.20
2018-08-19T01:09:32.119Z,14.20
2018-08-19T01:12:00.856Z,14.20
2018-08-19T01:14:29.330Z,14.20
2018-08-19T01:16:57.916Z,14.10
2018-08-19T01:19:26.549Z,14.10
2018-08-19T01:21:55.052Z,14.10
2018-08-19T01:24:23.634Z,14.00
2018-08-19T01:26:52.160Z,13.90
2018-08-19T01:29:35.040Z,13.90
2018-08-19T01:32:09.478Z,13.90
2018-08-19T01:34:38.684Z,13.80
2018-08-19T01:37:07.924Z,13.90
2018-08-19T01:39:38.480Z,13.90
2018-08-19T01:42:07.876Z,13.90
2018-08-19T01:44:36.363Z,13.80
2018-08-19T01:47:04.864Z,13.80
2018-08-19T01:49:33.392Z,13.80
2018-08-19T01:52:01.849Z,13.70
2018-08-19T01:54:30.904Z,13.60
2018-08-19T01:57:01.615Z,13.70
2018-08-19T01:59:35.481Z,13.70
2018-08-19T02:02:05.231Z,13.60
2018-08-19T02:04:39.886Z,13.60
2018-08-19T02:07:08.859Z,13.60
2018-08-19T02:09:47.460Z,13.60
2018-08-19T02:12:15.988Z,13.60
2018-08-19T02:14:44.485Z,13.50
2018-08-19T02:17:12.940Z,13.50
2018-08-19T02:19:41.460Z,13.50
2018-08-19T02:22:09.944Z,13.40
2018-08-19T02:24:38.362Z,13.30
2018-08-19T02:27:06.842Z,13.30
2018-08-19T02:29:36.585Z,13.40
2018-08-19T02:32:06.832Z,13.40
2018-08-19T02:34:39.305Z,13.30
2018-08-19T02:37:11.053Z,13.30
2018-08-19T02:39:42.297Z,13.30
2018-08-19T02:42:30.825Z,13.20
2018-08-19T02:45:04.152Z,13.10
2018-08-19T02:47:33.559Z,13.20
2018-08-19T02:50:02.048Z,13.20
2018-08-19T02:52:32.640Z,13.10
2018-08-19T02:55:02.341Z,13.10
2018-08-19T02:57:31.661Z,13.20
2018-08-19T03:00:01.157Z,13.20
2018-08-19T03:02:31.211Z,13.10
2018-08-19T03:05:00.634Z,13.00
2018-08-19T03:07:30.645Z,13.00
2018-08-19T03:10:04.428Z,13.00
2018-08-19T03:12:32.929Z,12.90
2018-08-19T03:15:01.464Z,12.90
2018-08-19T03:17:30.850Z,12.90
2018-08-19T03:20:00.070Z,12.80
2018-08-19T03:22:29.181Z,12.90
2018-08-19T03:25:01.000Z,12.90
2018-08-19T03:27:30.064Z,12.80
2018-08-19T03:29:59.908Z,12.80
2018-08-19T03:32:28.465Z,12.70
2018-08-19T03:35:07.636Z,12.70
2018-08-19T03:37:37.194Z,12.70
2018-08-19T03:40:06.367Z,12.70
2018-08-19T03:42:34.910Z,12.70
2018-08-19T03:45:08.667Z,12.60
2018-08-19T03:47:37.108Z,12.60
2018-08-19T03:50:09.905Z,12.60
2018-08-19T03:52:38.384Z,12.60
2018-08-19T03:55:11.091Z,12.50
2018-08-19T03:57:39.532Z,12.50
2018-08-19T04:00:08.043Z,12.50
2018-08-19T04:02:36.514Z,12.50
2018-08-19T04:05:05.266Z,12.50
2018-08-19T04:07:33.781Z,12.50
2018-08-19T04:10:02.225Z,12.50
2018-08-19T04:12:30.710Z,12.50
2018-08-19T04:14:59.169Z,12.50
2018-08-19T04:17:27.630Z,12.40
2018-08-19T04:19:58.247Z,12.40
2018-08-19T04:22:26.715Z,12.40
2018-08-19T04:24:56.453Z,12.40
2018-08-19T04:27:24.892Z,12.50
2018-08-19T04:29:53.329Z,12.40
2018-08-19T04:32:27.746Z,12.40
2018-08-19T04:34:56.187Z,12.40
2018-08-19T04:37:24.673Z,12.30
2018-08-19T04:39:53.199Z,12.30
2018-08-19T04:42:21.808Z,12.30
2018-08-19T04:44:50.250Z,12.30
2018-08-19T04:47:33.711Z,12.40
2018-08-19T04:50:02.113Z,12.40
2018-08-19T04:52:32.669Z,12.40
2018-08-19T04:55:01.411Z,12.30
2018-08-19T04:57:29.889Z,12.40
2018-08-19T04:59:58.325Z,12.40
2018-08-19T05:02:26.786Z,12.50
2018-08-19T05:04:55.300Z,12.50
2018-08-19T05:07:23.750Z,12.50
2018-08-19T05:09:52.288Z,12.60
2018-08-19T05:12:20.751Z,12.70
2018-08-19T05:14:49.198Z,12.70
2018-08-19T05:17:17.603Z,12.80
2018-08-19T05:19:46.077Z,12.80
2018-08-19T05:22:15.376Z,12.90
2018-08-19T05:24:45.544Z,12.90
2018-08-19T05:27:15.274Z,13.00
2018-08-19T05:29:43.737Z,13.10
2018-08-19T05:32:13.737Z,13.20
2018-08-19T05:34:43.324Z,13.30
2018-08-19T05:37:11.920Z,13.40
2018-08-19T05:39:47.612Z,13.40
2018-08-19T05:42:16.057Z,13.50
2018-08-19T05:44:44.976Z,13.60
2018-08-19T05:47:17.194Z,13.70
2018-08-19T05:49:46.629Z,13.90
2018-08-19T05:52:20.221Z,14.00
2018-08-19T05:55:03.643Z,14.10
2018-08-19T05:57:34.784Z,14.20
2018-08-19T06:00:08.847Z,14.30
2018-08-19T06:02:44.467Z,14.30
2018-08-19T06:05:13.035Z,14.40
2018-08-19T06:07:41.741Z,14.50
2018-08-19T06:10:10.124Z,14.70
2018-08-19T06:12:38.615Z,14.80
2018-08-19T06:15:07.193Z,14.90
2018-08-19T06:17:35.698Z,15.10
2018-08-19T06:20:04.369Z,15.20
2018-08-19T06:22:38.417Z,15.40
2018-08-19T06:25:07.776Z,15.70
2018-08-19T06:27:44.909Z,15.90
2018-08-19T06:30:14.429Z,16.10
2018-08-19T06:32:43.279Z,16.50
2018-08-19T06:35:11.797Z,16.60
2018-08-19T06:37:40.275Z,17.00
2018-08-19T06:40:10.625Z,17.00
2018-08-19T06:42:39.317Z,17.20
2018-08-19T06:45:08.738Z,17.60
2018-08-19T06:47:37.321Z,17.80
2018-08-19T06:50:12.919Z,18.20
2018-08-19T06:52:41.337Z,18.50
2018-08-19T06:55:09.912Z,18.70
2018-08-19T06:57:38.312Z,19.00
2018-08-19T07:00:12.188Z,19.30
2018-08-19T07:02:40.885Z,19.60
2018-08-19T07:05:09.483Z,19.50
2018-08-19T07:07:38.541Z,19.80
2018-08-19T07:10:07.585Z,20.20
2018-08-19T07:12:36.114Z,20.50
2018-08-19T07:15:05.480Z,20.60
2018-08-19T07:17:34.004Z,20.90
2018-08-19T07:20:02.606Z,21.00
2018-08-19T07:22:31.713Z,21.30
2018-08-19T07:25:00.163Z,21.50
2018-08-19T07:27:28.658Z,21.70
2018-08-19T07:29:57.176Z,22.10
2018-08-19T07:32:25.646Z,22.30
2018-08-19T07:34:54.754Z,22.50
2018-08-19T07:37:23.296Z,22.70
2018-08-19T07:39:53.865Z,23.10
2018-08-19T07:42:22.673Z,23.40
2018-08-19T07:44:51.221Z,23.40
2018-08-19T07:47:20.196Z,23.40
2018-08-19T07:49:48.869Z,23.50
2018-08-19T07:52:18.316Z,23.60
2018-08-19T07:54:46.939Z,23.60
2018-08-19T07:57:24.788Z,23.60
2018-08-19T07:59:53.593Z,23.90
2018-08-19T08:02:26.501Z,24.10
2018-08-19T08:04:55.132Z,24.30
2018-08-19T08:07:23.942Z,24.30
2018-08-19T08:09:52.380Z,24.60
2018-08-19T08:12:20.976Z,24.80
2018-08-19T08:14:51.142Z,24.90
2018-08-19T08:17:20.224Z,25.10
2018-08-19T08:19:57.888Z,25.30
2018-08-19T08:22:28.272Z,25.30
2018-08-19T08:24:57.597Z,25.30
2018-08-19T08:27:26.125Z,25.40
2018-08-19T08:29:54.854Z,25.50
2018-08-19T08:32:23.332Z,25.70
2018-08-19T08:34:51.836Z,25.90
2018-08-19T08:37:20.436Z,26.00
2018-08-19T08:39:55.221Z,26.30
2018-08-19T08:42:28.217Z,26.30
2018-08-19T08:44:57.068Z,26.60
2018-08-19T08:47:25.546Z,26.80
2018-08-19T08:49:54.015Z,26.70
2018-08-19T08:52:23.275Z,26.80
2018-08-19T08:55:01.248Z,27.10
2018-08-19T08:57:29.914Z,27.30
2018-08-19T08:59:58.425Z,27.40
2018-08-19T09:02:26.916Z,27.40
2018-08-19T09:04:56.118Z,27.60
2018-08-19T09:07:25.575Z,27.50
2018-08-19T09:09:54.060Z,27.80
2018-08-19T09:12:33.966Z,27.90
2018-08-19T09:15:02.456Z,27.90
2018-08-19T09:17:31.046Z,27.90
2018-08-19T09:19:59.589Z,28.20
2018-08-19T09:22:28.128Z,28.40
2018-08-19T09:24:56.634Z,28.20
2018-08-19T09:27:25.133Z,28.40
2018-08-19T09:29:53.697Z,28.50
2018-08-19T09:32:22.205Z,28.60
2018-08-19T09:34:50.764Z,28.50
2018-08-19T09:37:19.441Z,28.60
2018-08-19T09:39:48.576Z,27.90
2018-08-19T09:42:17.952Z,28.00
2018-08-19T09:44:46.456Z,28.20
2018-08-19T09:47:14.977Z,28.40
2018-08-19T09:49:43.440Z,28.50
2018-08-19T09:52:11.888Z,28.30
2018-08-19T09:54:40.568Z,28.60
2018-08-19T09:57:09.436Z,28.00
2018-08-19T09:59:37.971Z,27.90
2018-08-19T10:02:07.814Z,28.00
2018-08-19T10:04:36.952Z,28.20
2018-08-19T10:07:11.037Z,28.40
2018-08-19T10:09:39.768Z,28.60
2018-08-19T10:12:08.994Z,28.40
2018-08-19T10:14:37.474Z,28.80
2018-08-19T10:17:06.352Z,29.20
2018-08-19T10:19:34.952Z,29.30
2018-08-19T10:22:03.446Z,29.20
2018-08-19T10:24:33.100Z,29.60
2018-08-19T10:27:01.751Z,29.90
2018-08-19T10:29:30.218Z,30.40
2018-08-19T10:32:02.089Z,30.80
2018-08-19T10:34:34.035Z,30.90
2018-08-19T10:37:03.112Z,30.70
2018-08-19T10:39:31.626Z,30.40
2018-08-19T10:42:16.983Z,30.40
2018-08-19T10:44:47.083Z,30.10
2018-08-19T10:47:15.764Z,30.30
2018-08-19T10:49:52.524Z,30.80
2018-08-19T10:52:25.453Z,31.00
2018-08-19T10:54:55.218Z,31.30
2018-08-19T10:57:23.716Z,30.90
2018-08-19T10:59:55.020Z,31.10
2018-08-19T11:02:23.653Z,31.60
2018-08-19T11:04:54.644Z,31.80
2018-08-19T11:07:23.267Z,31.80
2018-08-19T11:10:22.121Z,32.00
2018-08-19T11:13:12.969Z,31.60
2018-08-19T11:15:48.166Z,31.30
2018-08-19T11:18:38.930Z,31.10
2018-08-19T11:21:21.880Z,31.40
2018-08-19T11:23:50.407Z,31.70
2018-08-19T11:26:19.041Z,32.10
2018-08-19T11:28:51.004Z,32.50
2018-08-19T11:31:25.798Z,32.60
2018-08-19T11:33:56.778Z,32.40
2018-08-19T11:36:31.588Z,32.20
2018-08-19T11:39:24.605Z,31.60
2018-08-19T11:41:54.881Z,31.20
2018-08-19T11:44:23.649Z,31.50
2018-08-19T11:47:10.815Z,31.90
2018-08-19T11:49:56.866Z,32.20
2018-08-19T11:52:31.216Z,32.40
2018-08-19T11:55:10.790Z,32.20
2018-08-19T11:57:39.217Z,32.10
2018-08-19T12:00:07.865Z,32.50
2018-08-19T12:02:36.336Z,32.10
2018-08-19T12:05:04.924Z,32.50
2018-08-19T12:07:33.877Z,32.80
2018-08-19T12:10:02.455Z,32.10
2018-08-19T12:12:44.624Z,31.50
2018-08-19T12:15:13.921Z,31.10
2018-08-19T12:17:42.507Z,30.20
2018-08-19T12:20:26.966Z,29.80
2018-08-19T12:23:11.140Z,29.00
2018-08-19T12:25:39.684Z,28.90
2018-08-19T12:28:08.200Z,28.80
2018-08-19T12:30:36.724Z,28.90
2018-08-19T12:33:16.626Z,29.10
2018-08-19T12:35:45.800Z,29.80
2018-08-19T12:38:14.336Z,30.40
2018-08-19T12:40:45.801Z,30.80
2018-08-19T12:46:22.700Z,30.60
2018-08-19T12:48:51.222Z,30.90
2018-08-19T12:51:19.702Z,31.50
2018-08-19T12:53:48.880Z,31.80
2018-08-19T12:56:18.636Z,32.00
2018-08-19T12:58:47.188Z,31.20
2018-08-19T13:01:15.905Z,32.00
2018-08-19T13:03:44.502Z,32.20
2018-08-19T13:06:12.973Z,32.70
2018-08-19T13:08:41.550Z,32.70
2018-08-19T13:11:10.051Z,32.70
2018-08-19T13:13:38.491Z,33.00
2018-08-19T13:16:07.087Z,32.70
2018-08-19T13:18:40.875Z,32.60
2018-08-19T13:21:14.090Z,33.20
2018-08-19T13:23:42.561Z,33.30
2018-08-19T13:26:15.493Z,33.10
2018-08-19T13:28:54.228Z,32.60
2018-08-19T13:31:27.424Z,32.20
2018-08-19T13:33:55.903Z,31.80
2018-08-19T13:36:24.384Z,32.00
2018-08-19T13:38:52.857Z,32.40
2018-08-19T13:41:22.716Z,32.50
2018-08-19T13:43:51.494Z,32.50
2018-08-19T13:46:19.944Z,32.60
2018-08-19T13:48:48.474Z,32.80
2018-08-19T13:51:17.010Z,32.90
2018-08-19T13:53:45.814Z,32.80
2018-08-19T13:56:14.272Z,31.90
2018-08-19T13:58:42.790Z,31.30
2018-08-19T14:01:11.336Z,30.60
2018-08-19T14:03:39.977Z,30.00
2018-08-19T14:06:09.076Z,29.60
2018-08-19T14:08:37.540Z,29.20
2018-08-19T14:11:06.286Z,29.20
2018-08-19T14:13:34.949Z,29.10
2018-08-19T14:16:03.432Z,29.80
2018-08-19T14:18:31.890Z,30.40
2018-08-19T14:21:00.400Z,30.90
2018-08-19T14:23:29.104Z,31.10
2018-08-19T14:25:58.284Z,31.50
2018-08-19T14:28:26.858Z,31.60
2018-08-19T14:30:55.345Z,31.50
2018-08-19T14:33:23.997Z,30.90
2018-08-19T14:35:52.647Z,30.60
2018-08-19T14:38:21.245Z,31.00
2018-08-19T14:40:49.785Z,30.80
2018-08-19T14:43:18.275Z,30.70
2018-08-19T14:45:46.744Z,30.70
2018-08-19T14:48:15.263Z,30.90
2018-08-19T14:50:44.247Z,30.50
2018-08-19T14:53:12.873Z,30.40
2018-08-19T14:55:41.373Z,30.30
2018-08-19T14:58:09.994Z,29.90
2018-08-19T15:00:39.410Z,29.70
2018-08-19T15:03:07.893Z,29.60
2018-08-19T15:05:36.352Z,29.70
2018-08-19T15:08:20.508Z,29.60
2018-08-19T15:10:53.906Z,29.60
2018-08-19T15:13:22.376Z,29.50
2018-08-19T15:15:50.873Z,29.70
2018-08-19T15:18:19.400Z,29.70
2018-08-19T15:20:47.861Z,29.70
2018-08-19T15:23:19.913Z,29.70
2018-08-19T15:25:48.384Z,29.50
2018-08-19T15:28:17.707Z,29.30
2018-08-19T15:30:46.237Z,29.30
2018-08-19T15:33:15.570Z,29.10
2018-08-19T15:35:44.852Z,28.80
2018-08-19T15:38:13.586Z,28.80
2018-08-19T15:40:47.481Z,28.60
2018-08-19T15:43:15.953Z,28.20
2018-08-19T15:45:45.248Z,28.10
2018-08-19T15:48:14.263Z,28.10
2018-08-19T15:50:43.544Z,28.20
2018-08-19T15:53:12.156Z,28.10
2018-08-19T15:55:40.672Z,28.00
2018-08-19T15:58:09.292Z,28.00
2018-08-19T16:00:41.861Z,28.00
2018-08-19T16:03:11.901Z,27.70
2018-08-19T16:05:41.149Z,27.50
2018-08-19T16:08:10.360Z,27.30
2018-08-19T16:10:38.881Z,27.10
2018-08-19T16:13:10.073Z,27.10
2018-08-19T16:15:38.572Z,26.80
2018-08-19T16:18:07.737Z,26.90
2018-08-19T16:20:36.476Z,26.70
2018-08-19T16:23:05.518Z,26.60
2018-08-19T16:25:34.073Z,26.50
2018-08-19T16:28:02.561Z,26.50
2018-08-19T16:30:31.137Z,26.40
2018-08-19T16:33:00.444Z,26.40
2018-08-19T16:35:29.256Z,26.30
2018-08-19T16:37:57.805Z,26.20
2018-08-19T16:40:26.334Z,26.20
2018-08-19T16:42:54.841Z,26.20
2018-08-19T16:45:23.482Z,26.20
2018-08-19T16:47:52.008Z,26.20
2018-08-19T16:50:20.647Z,26.10
2018-08-19T16:52:49.972Z,26.10
2018-08-19T16:55:18.538Z,26.00
2018-08-19T16:57:47.021Z,25.80
2018-08-19T17:00:15.475Z,25.90
2018-08-19T17:02:44.117Z,25.90
2018-08-19T17:05:27.193Z,25.80
2018-08-19T17:07:56.079Z,25.80
2018-08-19T17:10:25.392Z,25.80
2018-08-19T17:12:55.189Z,25.80
2018-08-19T17:15:24.280Z,25.70
2018-08-19T17:17:52.819Z,25.60
2018-08-19T17:20:21.234Z,25.50
2018-08-19T17:22:49.700Z,25.40
2018-08-19T17:25:18.305Z,25.30
2018-08-19T17:27:47.576Z,25.20
2018-08-19T17:30:18.869Z,25.10
2018-08-19T17:32:52.480Z,25.00
2018-08-19T17:35:20.821Z,24.90
2018-08-19T17:37:49.437Z,24.80
2018-08-19T17:40:18.117Z,24.80
2018-08-19T17:42:46.560Z,24.70
2018-08-19T17:45:15.010Z,24.60
2018-08-19T17:47:45.146Z,24.50
2018-08-19T17:50:18.080Z,24.40
2018-08-19T17:52:46.580Z,24.30
2018-08-19T17:55:15.077Z,24.20
2018-08-19T17:57:44.191Z,24.10
2018-08-19T18:00:12.826Z,24.10
2018-08-19T18:02:41.394Z,23.90
2018-08-19T18:05:09.880Z,23.70
2018-08-19T18:07:38.374Z,23.60
2018-08-19T18:10:13.413Z,23.50
2018-08-19T18:12:41.884Z,23.40
2018-08-19T18:15:11.240Z,23.30
2018-08-19T18:17:40.525Z,23.10
2018-08-19T18:20:24.105Z,22.90
2018-08-19T18:22:54.581Z,22.80
2018-08-19T18:25:23.493Z,22.60
2018-08-19T18:27:51.951Z,22.50
2018-08-19T18:30:23.897Z,22.40
2018-08-19T18:32:52.746Z,22.40
2018-08-19T18:35:22.195Z,22.30
2018-08-19T18:37:50.676Z,22.20
2018-08-19T18:40:24.496Z,22.10
2018-08-19T18:42:52.976Z,22.00
2018-08-19T18:45:21.476Z,21.90
2018-08-19T18:47:55.374Z,21.80
2018-08-19T18:50:25.189Z,21.70
2018-08-19T18:52:54.060Z,21.60
2018-08-19T18:55:22.590Z,21.60
2018-08-19T18:57:53.416Z,21.40
2018-08-19T19:00:24.155Z,21.40
2018-08-19T19:02:58.245Z,21.30
2018-08-19T19:05:40.514Z,21.20
2018-08-19T19:08:13.074Z,21.10
2018-08-19T19:10:50.702Z,21.00
2018-08-19T19:13:21.063Z,20.90
2018-08-19T19:15:49.835Z,20.90
2018-08-19T19:18:19.290Z,20.70
2018-08-19T19:20:53.609Z,20.60
2018-08-19T19:23:30.205Z,20.50
2018-08-19T19:25:59.445Z,20.50
2018-08-19T19:28:28.023Z,20.40
2018-08-19T19:31:02.233Z,20.30
2018-08-19T19:33:30.781Z,20.20
2018-08-19T19:36:09.353Z,20.10
2018-08-19T19:38:44.931Z,20.00
2018-08-19T19:41:13.404Z,19.90
2018-08-19T19:43:42.854Z,19.90
2018-08-19T19:46:12.597Z,19.90
2018-08-19T19:48:41.097Z,19.80
2018-08-19T19:51:09.632Z,19.80
2018-08-19T19:53:38.213Z,19.60
2018-08-19T19:56:16.853Z,19.60
2018-08-19T19:58:46.362Z,19.50
2018-08-19T20:01:15.359Z,19.40
2018-08-19T20:03:49.440Z,19.40
2018-08-19T20:06:18.253Z,19.30
2018-08-19T20:08:46.875Z,19.20
2018-08-19T20:11:19.504Z,19.20
2018-08-19T20:13:48.473Z,19.10
2018-08-19T20:16:17.068Z,19.10
2018-08-19T20:18:45.581Z,19.00
2018-08-19T20:21:23.372Z,19.00
2018-08-19T20:23:53.449Z,18.90
2018-08-19T20:26:22.526Z,18.80
2018-08-19T20:28:52.865Z,18.80
2018-08-19T20:31:21.284Z,18.70
2018-08-19T20:33:49.902Z,18.60
2018-08-19T20:36:18.489Z,18.60
2018-08-19T20:38:46.964Z,18.50
2018-08-19T20:41:15.498Z,18.50
2018-08-19T20:43:43.970Z,18.50
2018-08-19T20:46:12.527Z,18.50
2018-08-19T20:48:40.964Z,18.40
2018-08-19T20:51:09.524Z,18.30
2018-08-19T20:53:38.334Z,18.30
2018-08-19T20:56:06.843Z,18.10
2018-08-19T20:58:35.386Z,18.10
2018-08-19T21:01:03.944Z,18.00
2018-08-19T21:03:33.066Z,18.00
2018-08-19T21:06:01.572Z,17.90
2018-08-19T21:08:30.039Z,17.90
2018-08-19T21:10:59.081Z,17.90
2018-08-19T21:13:27.570Z,17.90
2018-08-19T21:15:56.025Z,17.90
2018-08-19T21:18:24.609Z,17.80
2018-08-19T21:20:53.880Z,17.80
2018-08-19T21:23:22.368Z,17.60
2018-08-19T21:25:56.064Z,17.60
2018-08-19T21:28:24.566Z,17.60
2018-08-19T21:30:53.134Z,17.60
2018-08-19T21:33:22.424Z,17.60
2018-08-19T21:35:53.000Z,17.50
2018-08-19T21:38:21.863Z,17.40
2018-08-19T21:40:53.743Z,17.40
2018-08-19T21:43:25.918Z,17.30
2018-08-19T21:45:54.459Z,17.20
2018-08-19T21:48:22.940Z,17.20
2018-08-19T21:50:51.561Z,17.10
2018-08-19T21:53:20.772Z,17.10
2018-08-19T21:55:50.561Z,17.10
2018-08-19T21:58:19.064Z,17.10
2018-08-19T22:00:55.962Z,17.10
2018-08-19T22:03:29.853Z,17.10
2018-08-19T22:05:58.525Z,17.00
2018-08-19T22:08:27.094Z,16.90
2018-08-19T22:10:55.559Z,16.80
2018-08-19T22:13:23.996Z,16.80
2018-08-19T22:15:52.547Z,16.80
2018-08-19T22:18:22.371Z,16.80
2018-08-19T22:21:03.796Z,16.80
2018-08-19T22:23:40.425Z,16.70
2018-08-19T22:26:10.250Z,16.70
2018-08-19T22:28:39.195Z,16.70
2018-08-19T22:31:19.904Z,16.60
2018-08-19T22:33:51.831Z,16.50
2018-08-19T22:36:20.539Z,16.40
2018-08-19T22:38:49.441Z,16.40
2018-08-19T22:41:22.523Z,16.30
2018-08-19T22:43:51.972Z,16.30
2018-08-19T22:46:21.006Z,16.30
2018-08-19T22:48:51.536Z,16.30
2018-08-19T22:51:20.177Z,16.30
2018-08-19T22:53:51.852Z,16.30
2018-08-19T22:56:20.891Z,16.10
2018-08-19T22:58:49.418Z,16.10
2018-08-19T23:01:17.901Z,16.00
2018-08-19T23:03:46.500Z,15.90
2018-08-19T23:06:14.991Z,15.90
2018-08-19T23:08:43.479Z,16.00
2018-08-19T23:11:12.851Z,16.00
2018-08-19T23:13:52.644Z,16.00
2018-08-19T23:16:22.283Z,16.00
2018-08-19T23:18:50.746Z,16.00
2018-08-19T23:21:19.319Z,15.90
2018-08-19T23:23:47.771Z,15.90
2018-08-19T23:26:16.200Z,15.80
2018-08-19T23:28:44.632Z,15.90
2018-08-19T23:31:13.357Z,16.00
2018-08-19T23:33:41.793Z,16.00
2018-08-19T23:36:10.323Z,16.00
2018-08-19T23:38:38.821Z,15.90
2018-08-19T23:41:07.349Z,16.00
2018-08-19T23:43:35.807Z,16.00
2018-08-19T23:46:04.442Z,16.00
2018-08-19T23:48:32.852Z,16.10
2018-08-19T23:51:01.351Z,16.10
2018-08-19T23:53:29.808Z,16.10
2018-08-19T23:55:58.279Z,16.10
2018-08-19T23:58:26.793Z,16.10
